createdAt,value
2022-11-02T06:18:41.613Z,4.60
2022-11-02T06:26:00.107Z,5.10
2022-11-02T06:28:51.774Z,5.05
2022-11-02T06:31:41.139Z,4.55
2022-11-02T06:34:36.554Z,4.88
2022-11-02T06:37:39.104Z,4.50
2022-11-02T06:40:26.684Z,4.60
2022-11-02T06:43:17.870Z,4.80
2022-11-02T06:46:07.590Z,4.50
2022-11-02T06:48:58.914Z,5.00
2022-11-02T06:51:51.679Z,4.43
2022-11-02T06:54:41.162Z,4.70
2022-11-02T06:57:27.942Z,4.30
2022-11-02T07:00:21.113Z,4.50
2022-11-02T07:03:13.211Z,4.40
2022-11-02T07:06:00.308Z,4.43
2022-11-02T07:08:47.355Z,4.50
2022-11-02T07:11:34.236Z,4.55
2022-11-02T07:14:21.195Z,4.50
2022-11-02T07:17:08.089Z,4.85
2022-11-02T07:19:54.953Z,4.25
2022-11-02T07:22:42.113Z,4.25
2022-11-02T07:25:33.562Z,4.25
2022-11-02T07:28:21.039Z,4.15
2022-11-02T07:31:08.140Z,4.95
2022-11-02T07:33:55.188Z,4.15
2022-11-02T07:36:42.380Z,4.50
2022-11-02T07:39:30.802Z,4.18
2022-11-02T07:42:18.142Z,4.63
2022-11-02T07:45:05.778Z,4.22
2022-11-02T07:47:53.238Z,3.65
2022-11-02T07:50:40.066Z,4.22
2022-11-02T07:53:26.921Z,4.20
2022-11-02T07:56:13.710Z,4.03
2022-11-02T07:59:00.453Z,4.00
2022-11-02T08:01:47.262Z,4.18
2022-11-02T08:04:34.074Z,3.90
2022-11-02T08:07:20.836Z,4.03
2022-11-02T08:10:11.608Z,4.10
2022-11-02T08:12:58.533Z,3.92
2022-11-02T08:15:48.469Z,3.67
2022-11-02T08:18:35.271Z,3.83
2022-11-02T08:21:22.038Z,3.53
2022-11-02T08:24:11.657Z,3.47
2022-11-02T08:26:58.438Z,3.30
2022-11-02T08:29:45.196Z,3.47
2022-11-02T08:32:31.980Z,3.10
2022-11-02T08:35:18.709Z,3.28
2022-11-02T08:38:06.752Z,3.40
2022-11-02T08:40:55.074Z,3.13
2022-11-02T08:43:41.833Z,2.90
2022-11-02T08:46:32.393Z,2.65
2022-11-02T08:49:19.661Z,2.85
2022-11-02T08:52:06.418Z,3.03
2022-11-02T08:54:53.167Z,3.45
2022-11-02T08:57:49.732Z,2.92
2022-11-02T09:00:36.509Z,2.80
2022-11-02T09:03:26.984Z,2.63
2022-11-02T09:06:14.176Z,2.97
2022-11-02T09:09:00.978Z,2.72
2022-11-02T09:11:53.210Z,2.67
2022-11-02T09:14:40.724Z,2.75
2022-11-02T09:17:29.311Z,2.53
2022-11-02T09:20:17.918Z,2.80
2022-11-02T09:23:05.133Z,2.63
2022-11-02T09:25:52.139Z,2.95
2022-11-02T09:28:39.141Z,2.80
2022-11-02T09:31:27.977Z,2.50
2022-11-02T09:34:15.574Z,2.83
2022-11-02T09:37:02.344Z,2.47
2022-11-02T09:39:49.140Z,2.45
2022-11-02T09:42:46.239Z,2.58
2022-11-02T09:45:42.306Z,2.60
2022-11-02T09:48:33.571Z,2.33
2022-11-02T09:51:26.219Z,2.42
2022-11-02T09:54:28.037Z,2.63
2022-11-02T09:57:17.404Z,2.40
2022-11-02T10:00:05.050Z,2.75
2022-11-02T10:03:28.226Z,2.33
2022-11-02T10:06:21.373Z,2.47
2022-11-02T10:09:37.029Z,2.45
2022-11-02T10:12:49.876Z,2.25
2022-11-02T10:16:02.396Z,2.50
2022-11-02T10:18:51.529Z,2.15
2022-11-02T10:24:34.222Z,2.10
2022-11-02T10:27:29.696Z,2.20
2022-11-02T10:30:19.313Z,2.03
2022-11-02T10:33:14.308Z,2.03
2022-11-02T10:36:25.816Z,2.10
2022-11-02T10:39:51.303Z,1.98
2022-11-02T10:43:04.011Z,1.90
2022-11-02T10:46:23.515Z,2.17
2022-11-02T10:49:34.145Z,2.08
2022-11-02T10:52:21.150Z,1.90
2022-11-02T10:55:28.962Z,2.33
2022-11-02T10:58:27.592Z,1.75
2022-11-02T11:01:16.824Z,1.80
2022-11-02T11:04:19.924Z,1.90
2022-11-02T11:07:13.598Z,1.98
2022-11-02T11:10:31.610Z,1.90
2022-11-02T11:16:54.449Z,1.55
2022-11-02T11:19:47.971Z,1.70
2022-11-02T11:22:43.933Z,1.80
2022-11-02T11:25:33.557Z,1.80
2022-11-02T11:28:30.626Z,1.80
2022-11-02T11:31:21.175Z,1.35
2022-11-02T11:34:32.145Z,1.90
2022-11-02T11:37:18.898Z,1.70
2022-11-02T11:40:18.872Z,1.70
2022-11-02T11:43:10.644Z,1.75
2022-11-02T11:46:06.736Z,1.50
2022-11-02T11:48:56.057Z,1.92
2022-11-02T11:51:45.004Z,1.50
2022-11-02T11:54:32.957Z,1.70
2022-11-02T11:57:33.860Z,1.40
2022-11-02T12:00:28.905Z,1.60
2022-11-02T12:03:16.482Z,1.65
2022-11-02T12:06:18.086Z,1.70
2022-11-02T12:09:50.834Z,1.50
2022-11-02T12:13:00.623Z,1.55
2022-11-02T12:16:10.967Z,1.73
2022-11-02T12:19:06.766Z,1.60
2022-11-02T12:22:19.475Z,1.60
2022-11-02T12:25:34.146Z,1.60
2022-11-02T12:28:51.669Z,1.52
2022-11-02T12:31:46.166Z,1.50
2022-11-02T12:35:23.001Z,1.70
2022-11-02T12:38:18.452Z,1.30
2022-11-02T12:41:11.043Z,1.60
2022-11-02T12:44:10.767Z,1.73
2022-11-02T12:47:04.759Z,1.50
2022-11-02T12:50:29.541Z,1.52
2022-11-02T12:53:31.232Z,1.45
2022-11-02T12:56:32.005Z,1.48
2022-11-02T12:59:27.987Z,1.50
2022-11-02T13:02:21.712Z,1.30
2022-11-02T13:05:17.752Z,1.52
2022-11-02T13:08:18.290Z,1.60
2022-11-02T13:11:10.536Z,1.42
2022-11-02T13:13:58.254Z,1.30
2022-11-02T13:17:09.669Z,1.60
2022-11-02T13:20:18.869Z,1.40
2022-11-02T13:23:08.471Z,1.40
2022-11-02T13:25:58.606Z,1.50
2022-11-02T13:28:48.558Z,1.48
2022-11-02T13:31:43.608Z,1.40
2022-11-02T13:34:40.462Z,1.35
2022-11-02T13:37:30.785Z,1.63
2022-11-02T13:40:22.419Z,1.27
2022-11-02T13:43:21.481Z,1.30
2022-11-02T13:46:29.726Z,1.30
2022-11-02T13:49:24.475Z,1.40
2022-11-02T13:52:16.450Z,1.40
2022-11-02T13:55:06.980Z,1.48
2022-11-02T13:57:56.539Z,1.35
2022-11-02T14:00:49.405Z,1.63
2022-11-02T14:04:17.758Z,1.50
2022-11-02T14:07:23.930Z,1.33
2022-11-02T14:10:16.689Z,1.30
2022-11-02T14:13:03.853Z,1.42
2022-11-02T14:15:52.621Z,1.40
2022-11-02T14:18:42.090Z,1.30
2022-11-02T14:21:44.145Z,1.30
2022-11-02T14:24:37.015Z,1.30
2022-11-02T14:27:23.725Z,1.27
2022-11-02T14:30:42.418Z,1.23
2022-11-02T14:33:38.406Z,1.15
2022-11-02T14:36:49.914Z,1.20
2022-11-02T14:39:54.235Z,1.30
2022-11-02T14:43:15.356Z,1.30
2022-11-02T14:46:43.564Z,1.17
2022-11-02T14:49:32.843Z,1.27
2022-11-02T14:52:28.614Z,1.45
2022-11-02T14:55:18.428Z,1.20
2022-11-02T14:58:20.156Z,1.40
2022-11-02T15:01:13.064Z,1.23
2022-11-02T15:04:06.620Z,1.02
2022-11-02T15:06:55.514Z,1.20
2022-11-02T15:09:57.051Z,1.27
2022-11-02T15:12:46.503Z,1.10
2022-11-02T15:15:37.838Z,1.45
2022-11-02T15:18:27.895Z,1.30
2022-11-02T15:21:14.703Z,1.27
2022-11-02T15:24:17.508Z,1.35
2022-11-02T15:27:06.931Z,1.30
2022-11-02T15:33:10.977Z,1.23
2022-11-02T15:36:00.093Z,1.15
2022-11-02T15:42:14.003Z,1.20
2022-11-02T15:45:59.302Z,1.25
2022-11-02T15:49:44.066Z,1.20
2022-11-02T15:53:22.409Z,1.20
2022-11-02T15:56:20.660Z,1.23
2022-11-02T15:59:27.442Z,1.23
2022-11-02T16:02:16.960Z,1.25
2022-11-02T16:05:21.013Z,1.42
2022-11-02T16:08:24.818Z,1.50
2022-11-02T16:11:44.242Z,1.60
2022-11-02T16:14:32.232Z,1.20
2022-11-02T16:17:26.513Z,1.50
2022-11-02T16:26:22.239Z,1.25
2022-11-02T16:29:12.740Z,1.67
2022-11-02T16:32:01.596Z,1.38
2022-11-02T16:35:17.797Z,1.45
2022-11-02T16:38:11.741Z,1.45
2022-11-02T16:41:03.863Z,1.45
2022-11-02T16:43:58.125Z,1.52
2022-11-02T22:08:55.823Z,6.88
2022-11-02T22:12:41.997Z,6.30
2022-11-02T22:20:50.523Z,6.30
2022-11-02T22:39:57.207Z,5.75
2022-11-02T22:58:17.064Z,5.93
2022-11-02T23:02:44.297Z,6.00
2022-11-02T23:06:02.377Z,5.65
2022-11-02T23:09:02.901Z,6.25
2022-11-02T23:20:51.261Z,6.53
2022-11-02T23:24:05.589Z,7.07
2022-11-02T23:27:22.986Z,6.95
2022-11-02T23:30:40.915Z,7.30
2022-11-02T23:34:26.925Z,7.90
2022-11-02T23:40:56.722Z,8.02
2022-11-02T23:43:53.059Z,7.43
2022-11-02T23:47:00.676Z,7.82
2022-11-02T23:50:53.697Z,7.53
2022-11-02T23:57:14.629Z,7.55
2022-11-02T23:57:27.738Z,6.90
